South Hanover, Pennsylvania
Current Conditions -  °F | °C
As of 2:56 AM on Sunday 26 Oct 2014 (Local Time) from KMDT Reporting Station
Few Clouds Few Clouds  
Wind Chill: 62°   Ceiling: Unl
Heat Index: 62°   Visibility: 10mi
Dew Point: 37°   Wind: 20mph
Humidity: 39%   Direction: 320°NW
Pressure: 29.64"   Gusts: NA
Location:  40.2988°N, 76.709°W
Report Text: KMDT 260656Z 32017KT 10SM FEW080 17/03 A2964 RMK AO2 SLP036 T01670028 $
Loading
Personal Weather Stations






























Interactive Weather Map
Tropical Storm Tracking
New forecast layout! Learn more

10-Day Weather Forecast

Advertisements
Track Severe Weather on mobile